createdAt,value
2023-03-18T00:01:41.031Z,19.10
2023-03-18T00:04:14.500Z,21.50
2023-03-18T00:06:47.280Z,22.20
2023-03-18T00:09:24.260Z,22.00
2023-03-18T00:11:57.720Z,26.80
2023-03-18T00:14:30.550Z,26.00
2023-03-18T00:17:07.047Z,29.40
2023-03-18T00:19:40.286Z,23.30
2023-03-18T00:22:13.160Z,28.00
2023-03-18T00:24:46.564Z,24.20
2023-03-18T00:27:19.682Z,26.60
2023-03-18T00:29:57.775Z,24.00
2023-03-18T00:32:32.130Z,28.20
2023-03-18T00:35:05.373Z,26.50
2023-03-18T00:37:38.937Z,26.50
2023-03-18T00:40:20.558Z,28.90
2023-03-18T00:43:01.901Z,30.00
2023-03-18T00:45:35.302Z,26.20
2023-03-18T00:48:09.781Z,23.60
2023-03-18T00:50:45.372Z,25.30
2023-03-18T00:53:25.756Z,24.50
2023-03-18T00:55:59.109Z,21.40
2023-03-18T00:58:32.058Z,19.50
2023-03-18T01:01:06.286Z,21.90
2023-03-18T01:03:42.411Z,21.00
2023-03-18T01:06:17.674Z,25.40
2023-03-18T01:08:50.800Z,23.80
2023-03-18T01:11:24.015Z,24.90
2023-03-18T01:13:56.585Z,28.20
2023-03-18T01:16:31.110Z,33.80
2023-03-18T01:19:05.663Z,28.90
2023-03-18T01:21:39.181Z,29.90
2023-03-18T01:24:12.259Z,29.10
2023-03-18T01:26:46.147Z,27.00
2023-03-18T01:29:21.258Z,28.50
2023-03-18T01:31:55.212Z,25.90
2023-03-18T01:34:28.959Z,29.90
2023-03-18T01:37:01.763Z,29.20
2023-03-18T01:39:37.700Z,25.80
2023-03-18T01:42:12.266Z,29.00
2023-03-18T01:44:46.518Z,24.20
2023-03-18T01:47:21.373Z,26.40
2023-03-18T01:50:00.181Z,33.70
2023-03-18T01:52:37.880Z,30.50
2023-03-18T01:55:14.252Z,32.80
2023-03-18T01:57:49.237Z,28.10
2023-03-18T02:00:23.747Z,27.50
2023-03-18T02:02:58.560Z,34.60
2023-03-18T02:05:31.355Z,33.70
2023-03-18T02:08:04.126Z,26.40
2023-03-18T02:10:36.993Z,25.80
2023-03-18T02:13:12.794Z,26.00
2023-03-18T02:15:48.854Z,30.40
2023-03-18T02:18:28.856Z,26.90
2023-03-18T02:21:14.296Z,27.00
2023-03-18T02:23:54.145Z,26.50
2023-03-18T02:26:30.239Z,24.50
2023-03-18T02:29:14.925Z,26.30
2023-03-18T02:31:56.413Z,29.90
2023-03-18T02:34:29.896Z,27.70
2023-03-18T02:37:03.206Z,28.40
2023-03-18T02:39:36.155Z,29.90
2023-03-18T02:42:14.603Z,32.30
2023-03-18T02:44:52.937Z,29.30
2023-03-18T02:48:01.019Z,30.10
2023-03-18T02:50:35.007Z,32.30
2023-03-18T02:53:10.259Z,25.10
2023-03-18T02:55:43.023Z,23.60
2023-03-18T02:58:15.953Z,31.50
2023-03-18T03:00:51.321Z,22.50
2023-03-18T03:03:25.197Z,24.10
2023-03-18T03:06:03.613Z,23.00
2023-03-18T03:08:37.170Z,23.90
2023-03-18T03:11:10.703Z,24.60
2023-03-18T03:13:45.558Z,23.30
2023-03-18T03:16:18.996Z,19.30
2023-03-18T03:18:52.019Z,21.00
2023-03-18T03:21:25.437Z,20.90
2023-03-18T03:23:58.609Z,20.60
2023-03-18T03:26:31.847Z,21.40
2023-03-18T03:29:05.427Z,22.00
2023-03-18T03:31:38.274Z,22.00
2023-03-18T03:34:12.386Z,23.00
2023-03-18T03:36:45.378Z,22.60
2023-03-18T03:39:19.232Z,23.30
2023-03-18T03:41:53.716Z,23.90
2023-03-18T03:44:29.568Z,17.70
2023-03-18T03:47:02.858Z,18.70
2023-03-18T03:49:36.161Z,22.60
2023-03-18T03:52:10.029Z,18.50
2023-03-18T03:54:43.857Z,15.80
2023-03-18T03:57:17.800Z,18.20
2023-03-18T03:59:52.017Z,18.10
2023-03-18T04:02:28.994Z,15.60
2023-03-18T04:05:02.536Z,18.40
2023-03-18T04:07:36.564Z,18.80
2023-03-18T04:10:11.052Z,16.20
2023-03-18T04:12:46.138Z,17.30
2023-03-18T04:15:22.866Z,15.00
2023-03-18T04:17:57.917Z,18.90
2023-03-18T04:20:31.314Z,15.80
2023-03-18T04:23:05.374Z,19.20
2023-03-18T04:25:38.928Z,16.50
2023-03-18T04:28:11.794Z,16.10
2023-03-18T04:30:44.911Z,14.90
2023-03-18T04:33:21.389Z,18.00
2023-03-18T04:36:01.936Z,16.20
2023-03-18T04:38:35.528Z,15.20
2023-03-18T04:41:10.447Z,16.20
2023-03-18T04:43:44.809Z,15.50
2023-03-18T04:46:18.338Z,16.90
2023-03-18T04:48:51.561Z,16.30
2023-03-18T04:51:24.302Z,14.60
2023-03-18T04:54:00.854Z,14.70
2023-03-18T04:56:42.611Z,18.40
2023-03-18T04:59:18.436Z,18.60
2023-03-18T05:01:51.749Z,18.50
2023-03-18T05:04:24.339Z,20.60
2023-03-18T05:06:58.680Z,17.70
2023-03-18T05:09:42.845Z,19.00
2023-03-18T05:12:20.776Z,20.10
2023-03-18T05:15:00.678Z,23.20
2023-03-18T05:17:33.849Z,19.20
2023-03-18T05:20:15.293Z,16.50
2023-03-18T05:22:48.900Z,19.10
2023-03-18T05:25:30.561Z,15.30
2023-03-18T05:28:06.657Z,16.70
2023-03-18T05:30:50.197Z,14.60
2023-03-18T05:33:25.531Z,21.90
2023-03-18T05:36:00.289Z,16.30
2023-03-18T05:38:40.398Z,20.60
2023-03-18T05:41:14.072Z,20.10
2023-03-18T05:43:47.852Z,20.60
2023-03-18T05:46:21.438Z,21.70
2023-03-18T05:49:14.797Z,17.70
2023-03-18T05:51:56.019Z,18.80
2023-03-18T05:54:50.338Z,18.90
2023-03-18T05:57:28.611Z,23.40
2023-03-18T06:00:09.240Z,15.40
2023-03-18T06:02:54.259Z,23.90
2023-03-18T06:05:27.604Z,20.70
2023-03-18T06:08:01.671Z,20.40
2023-03-18T06:10:36.342Z,20.70
2023-03-18T06:13:10.343Z,24.70
2023-03-18T06:15:46.908Z,26.10
2023-03-18T06:18:21.119Z,21.70
2023-03-18T06:20:53.991Z,21.70
2023-03-18T06:23:34.092Z,17.80
2023-03-18T06:26:08.943Z,32.10
2023-03-18T06:28:46.514Z,21.90
2023-03-18T06:31:22.100Z,20.80
2023-03-18T06:34:00.908Z,33.30
2023-03-18T06:36:36.037Z,24.90
2023-03-18T06:39:12.519Z,21.90
2023-03-18T06:41:46.160Z,21.70
2023-03-18T06:44:52.260Z,29.40
2023-03-18T06:47:35.969Z,25.90
2023-03-18T06:50:12.053Z,26.40
2023-03-18T06:52:45.271Z,28.60
2023-03-18T06:55:20.675Z,25.50
2023-03-18T06:57:53.836Z,35.20
2023-03-18T07:00:32.166Z,38.20
2023-03-18T07:03:05.966Z,34.40
2023-03-18T07:05:43.529Z,39.40
2023-03-18T07:08:17.123Z,31.70
2023-03-18T07:10:50.156Z,46.70
2023-03-18T07:13:24.225Z,46.00
2023-03-18T07:15:57.505Z,44.50
2023-03-18T07:18:32.328Z,51.20
2023-03-18T07:21:09.924Z,38.90
2023-03-18T07:23:45.192Z,55.50
2023-03-18T07:26:18.115Z,55.10
2023-03-18T07:28:52.197Z,51.90
2023-03-18T07:31:25.435Z,43.60
2023-03-18T07:33:58.853Z,66.90
2023-03-18T07:36:32.050Z,56.70
2023-03-18T07:39:10.525Z,62.90
2023-03-18T07:41:43.190Z,61.60
2023-03-18T07:44:18.501Z,67.40
2023-03-18T07:46:52.672Z,53.20
2023-03-18T07:49:26.293Z,74.60
2023-03-18T07:52:02.463Z,56.60
2023-03-18T07:54:35.138Z,47.00
2023-03-18T07:57:08.017Z,84.10
2023-03-18T07:59:41.541Z,67.20
2023-03-18T08:02:17.291Z,82.70
2023-03-18T08:04:52.957Z,86.70
2023-03-18T08:07:25.936Z,61.60
2023-03-18T08:09:59.761Z,74.60
2023-03-18T08:12:45.389Z,79.90
2023-03-18T08:15:26.363Z,77.30
2023-03-18T08:18:09.169Z,71.40
2023-03-18T08:20:43.009Z,63.20
2023-03-18T08:23:16.169Z,76.20
2023-03-18T08:25:51.065Z,64.50
2023-03-18T08:28:26.027Z,81.70
2023-03-18T08:30:59.746Z,78.20
2023-03-18T08:33:32.662Z,50.30
2023-03-18T08:36:06.513Z,62.20
2023-03-18T08:38:42.649Z,77.50
2023-03-18T08:41:17.614Z,78.80
2023-03-18T08:43:55.678Z,71.60
2023-03-18T08:46:28.674Z,54.10
2023-03-18T08:49:02.254Z,44.00
2023-03-18T08:51:37.259Z,70.90
2023-03-18T08:54:10.658Z,63.40
2023-03-18T08:56:46.977Z,71.20
2023-03-18T08:59:20.227Z,75.60
2023-03-18T09:01:54.763Z,68.10
2023-03-18T09:04:27.635Z,76.40
2023-03-18T09:07:01.223Z,77.50
2023-03-18T09:09:43.456Z,66.00
2023-03-18T09:12:18.280Z,77.80
2023-03-18T09:14:51.532Z,89.60
2023-03-18T09:17:39.147Z,50.70
2023-03-18T09:20:19.325Z,55.10
2023-03-18T09:22:57.721Z,65.60
2023-03-18T09:25:31.101Z,79.80
2023-03-18T09:28:04.332Z,64.00
2023-03-18T09:30:38.248Z,72.00
2023-03-18T09:33:12.687Z,70.50
2023-03-18T09:35:52.120Z,74.30
2023-03-18T09:38:25.093Z,67.90
2023-03-18T09:41:06.961Z,70.60
2023-03-18T09:43:59.319Z,54.30
2023-03-18T09:49:47.834Z,52.20
2023-03-18T09:52:22.675Z,49.70
2023-03-18T09:55:00.510Z,61.40
2023-03-18T09:57:37.188Z,59.00
2023-03-18T10:00:17.740Z,84.60
2023-03-18T10:02:53.762Z,63.70
2023-03-18T10:05:30.822Z,43.30
2023-03-18T10:08:08.626Z,81.40
2023-03-18T10:10:42.366Z,73.90
2023-03-18T10:13:23.183Z,66.70
2023-03-18T10:15:58.019Z,61.90
2023-03-18T10:18:36.293Z,57.80
2023-03-18T10:21:16.545Z,44.40
2023-03-18T10:23:54.333Z,34.60
2023-03-18T10:26:31.393Z,71.50
2023-03-18T10:29:11.906Z,68.60
2023-03-18T10:31:52.665Z,61.90
2023-03-18T10:34:27.882Z,94.20
2023-03-18T10:37:09.264Z,102.20
2023-03-18T10:39:42.294Z,75.40
2023-03-18T10:42:22.136Z,77.30
2023-03-18T10:44:55.048Z,55.10
2023-03-18T10:47:29.432Z,79.80
2023-03-18T10:50:07.040Z,76.10
2023-03-18T10:52:41.924Z,85.20
2023-03-18T10:55:18.171Z,66.10
2023-03-18T10:57:51.277Z,54.50
2023-03-18T11:00:31.330Z,63.10
2023-03-18T11:03:05.295Z,64.20
2023-03-18T11:05:39.595Z,73.30
2023-03-18T11:08:33.832Z,72.90
2023-03-18T11:11:24.369Z,73.50
2023-03-18T11:13:58.329Z,42.70
2023-03-18T11:16:38.437Z,79.70
2023-03-18T11:19:32.459Z,81.60
2023-03-18T11:22:13.931Z,56.00
2023-03-18T11:24:49.137Z,69.10
2023-03-18T11:27:29.265Z,69.10
2023-03-18T11:30:06.080Z,75.20
2023-03-18T11:32:39.677Z,77.70
2023-03-18T11:35:21.879Z,64.60
2023-03-18T11:37:55.001Z,76.20
2023-03-18T11:40:32.638Z,91.70
2023-03-18T11:43:14.409Z,78.40
2023-03-18T11:45:53.702Z,85.00
2023-03-18T11:48:34.348Z,93.10
2023-03-18T11:51:18.074Z,63.40
2023-03-18T11:54:00.934Z,78.70
2023-03-18T11:56:36.311Z,57.10
2023-03-18T11:59:28.129Z,63.50
2023-03-18T12:02:08.670Z,75.30
2023-03-18T12:04:49.024Z,51.50
2023-03-18T12:07:30.477Z,67.50
2023-03-18T12:10:05.669Z,77.20
2023-03-18T12:12:49.482Z,55.80
2023-03-18T12:15:37.972Z,68.20
2023-03-18T12:18:17.798Z,62.50
2023-03-18T12:20:52.811Z,87.40
2023-03-18T12:23:52.886Z,61.90
2023-03-18T12:26:27.788Z,90.30
2023-03-18T12:29:23.653Z,101.60
2023-03-18T12:32:03.393Z,67.90
2023-03-18T12:34:51.871Z,64.20
2023-03-18T12:37:33.365Z,96.70
2023-03-18T12:40:16.172Z,96.90
2023-03-18T12:42:58.591Z,77.60
2023-03-18T12:45:35.060Z,82.50
2023-03-18T12:48:11.273Z,79.20
2023-03-18T12:50:45.693Z,56.00
2023-03-18T12:53:20.577Z,75.40
2023-03-18T12:55:55.639Z,63.30
2023-03-18T12:58:30.402Z,54.40
2023-03-18T13:01:07.617Z,66.40
2023-03-18T13:03:41.963Z,64.60
2023-03-18T13:06:18.924Z,73.80
2023-03-18T13:09:05.659Z,44.30
2023-03-18T13:11:54.082Z,43.60
2023-03-18T13:14:30.212Z,54.30
2023-03-18T13:17:04.829Z,34.40
2023-03-18T13:19:37.600Z,43.60
2023-03-18T13:22:24.422Z,39.70
2023-03-18T13:25:08.399Z,25.30
2023-03-18T13:27:53.606Z,42.70
2023-03-18T13:30:33.009Z,36.10
2023-03-18T13:33:25.949Z,44.30
2023-03-18T13:36:19.398Z,35.00
2023-03-18T13:39:01.018Z,25.50
2023-03-18T13:41:39.899Z,33.90
2023-03-18T13:44:16.531Z,27.90
2023-03-18T13:46:55.016Z,26.60
2023-03-18T13:49:30.118Z,23.00
2023-03-18T13:52:04.383Z,31.20
2023-03-18T13:54:39.373Z,19.00
2023-03-18T13:57:34.623Z,18.60
2023-03-18T14:00:27.301Z,26.70
2023-03-18T14:03:17.540Z,23.20
2023-03-18T14:05:52.136Z,18.80
2023-03-18T14:08:49.287Z,23.80
2023-03-18T14:11:50.337Z,29.20
2023-03-18T14:14:58.193Z,24.10
2023-03-18T14:17:35.272Z,27.20
2023-03-18T14:20:24.112Z,23.80
2023-03-18T14:22:56.749Z,24.20
2023-03-18T14:25:54.849Z,23.60
2023-03-18T14:28:28.938Z,20.50
2023-03-18T14:31:16.911Z,19.80
2023-03-18T14:34:01.925Z,18.40
2023-03-18T14:36:49.949Z,22.40
2023-03-18T14:39:24.748Z,16.10
2023-03-18T14:41:59.239Z,13.30
2023-03-18T14:44:36.039Z,19.10
2023-03-18T14:47:13.933Z,15.20
2023-03-18T14:49:47.321Z,16.40
2023-03-18T14:52:27.175Z,14.50
2023-03-18T14:55:03.783Z,20.10
2023-03-18T14:57:37.049Z,13.40
2023-03-18T15:00:16.872Z,16.10
2023-03-18T15:02:52.842Z,11.40
2023-03-18T15:05:37.301Z,16.40
2023-03-18T15:08:19.585Z,18.80
2023-03-18T15:13:27.402Z,19.30
2023-03-18T15:16:00.731Z,17.60
2023-03-18T15:18:34.726Z,11.00
2023-03-18T15:21:11.226Z,10.00
2023-03-18T15:23:46.774Z,15.70
2023-03-18T15:26:23.907Z,14.10
2023-03-18T15:28:58.587Z,18.10
2023-03-18T15:31:33.118Z,9.40
2023-03-18T15:34:18.863Z,12.90
2023-03-18T15:36:56.733Z,15.90
2023-03-18T15:39:37.944Z,16.20
2023-03-18T15:42:18.416Z,15.80
2023-03-18T15:44:53.820Z,18.30
2023-03-18T15:47:28.914Z,17.40
2023-03-18T15:50:03.532Z,18.50
2023-03-18T15:52:37.815Z,17.60
2023-03-18T15:55:29.499Z,14.20
2023-03-18T15:58:02.653Z,18.20
2023-03-18T16:00:36.197Z,11.30
2023-03-18T16:03:15.568Z,17.40
2023-03-18T16:05:49.350Z,16.30
2023-03-18T16:08:22.979Z,21.30
2023-03-18T16:10:57.100Z,15.00
2023-03-18T16:13:30.876Z,14.70
2023-03-18T16:16:03.879Z,20.10
2023-03-18T16:18:37.928Z,15.80
2023-03-18T16:21:15.744Z,17.10
2023-03-18T16:23:48.684Z,19.80
2023-03-18T16:26:21.812Z,25.50
2023-03-18T16:28:54.572Z,27.60
2023-03-18T16:31:28.881Z,19.20
2023-03-18T16:34:03.768Z,20.20
2023-03-18T16:36:38.554Z,20.50
2023-03-18T16:39:22.456Z,26.40
2023-03-18T16:42:00.828Z,19.70
2023-03-18T16:44:34.648Z,17.70
2023-03-18T16:47:10.512Z,13.10
2023-03-18T16:49:45.636Z,18.80
2023-03-18T16:52:18.505Z,26.00
2023-03-18T16:54:52.502Z,29.00
2023-03-18T16:57:29.796Z,38.60
2023-03-18T17:00:07.672Z,19.80
2023-03-18T17:02:45.528Z,20.60
2023-03-18T17:05:20.406Z,18.70
2023-03-18T17:07:53.480Z,30.90
2023-03-18T17:10:27.666Z,28.60
2023-03-18T17:13:06.691Z,22.20
2023-03-18T17:15:42.020Z,22.30
2023-03-18T17:18:17.575Z,17.90
2023-03-18T17:20:50.546Z,14.70
2023-03-18T17:23:25.490Z,18.00
2023-03-18T17:26:01.675Z,16.10
2023-03-18T17:28:37.365Z,17.20
2023-03-18T17:31:11.027Z,22.80
2023-03-18T17:33:46.893Z,25.40
2023-03-18T17:36:20.857Z,17.20
2023-03-18T17:38:58.858Z,14.50
2023-03-18T17:41:32.506Z,21.80
2023-03-18T17:44:05.261Z,12.60
2023-03-18T17:46:39.648Z,14.60
2023-03-18T17:49:14.847Z,21.60
2023-03-18T17:51:49.055Z,8.60
2023-03-18T17:54:23.581Z,7.70
2023-03-18T17:56:56.585Z,15.10
2023-03-18T17:59:31.045Z,13.10
2023-03-18T18:02:04.018Z,16.00
2023-03-18T18:04:39.259Z,17.10
2023-03-18T18:07:18.711Z,14.90
2023-03-18T18:09:52.158Z,13.80
2023-03-18T18:12:26.399Z,10.70
2023-03-18T18:15:00.291Z,14.30
2023-03-18T18:17:33.083Z,10.10
2023-03-18T18:20:06.715Z,14.90
2023-03-18T18:22:40.412Z,10.70
2023-03-18T18:25:18.879Z,15.10
2023-03-18T18:27:53.025Z,12.80
2023-03-18T18:30:27.541Z,12.90
2023-03-18T18:33:01.747Z,10.00
2023-03-18T18:35:35.210Z,11.70
2023-03-18T18:38:10.097Z,13.70
2023-03-18T18:40:45.684Z,10.30
2023-03-18T18:43:22.860Z,7.40
2023-03-18T18:45:57.932Z,10.70
2023-03-18T18:48:33.117Z,9.90
2023-03-18T18:51:11.676Z,8.70
2023-03-18T18:53:44.416Z,10.30
2023-03-18T18:56:20.431Z,6.30
2023-03-18T18:58:53.795Z,7.10
2023-03-18T19:01:27.411Z,6.00
2023-03-18T19:04:02.991Z,7.50
2023-03-18T19:06:36.887Z,8.70
2023-03-18T19:09:19.133Z,10.00
2023-03-18T19:11:54.049Z,7.40
2023-03-18T19:14:28.742Z,7.10
2023-03-18T19:17:04.492Z,7.00
2023-03-18T19:19:38.085Z,7.60
2023-03-18T19:22:18.182Z,11.40
2023-03-18T19:24:54.159Z,8.60
2023-03-18T19:27:27.983Z,7.50
2023-03-18T19:30:01.712Z,10.30
2023-03-18T19:32:35.911Z,8.10
2023-03-18T19:35:15.996Z,8.00
2023-03-18T19:37:50.260Z,8.30
2023-03-18T19:40:25.510Z,8.20
2023-03-18T19:42:58.770Z,10.00
2023-03-18T19:45:31.931Z,11.00
2023-03-18T19:48:10.081Z,11.00
2023-03-18T19:50:43.166Z,8.90
2023-03-18T19:53:19.908Z,10.50
2023-03-18T19:55:53.799Z,11.60
2023-03-18T19:58:28.116Z,8.70
2023-03-18T20:01:04.427Z,8.50
2023-03-18T20:03:37.292Z,7.80
2023-03-18T20:06:17.002Z,7.10
2023-03-18T20:08:52.460Z,7.40
2023-03-18T20:11:25.298Z,7.60
2023-03-18T20:14:03.081Z,7.20
2023-03-18T20:16:37.616Z,7.60
2023-03-18T20:19:12.103Z,6.50
2023-03-18T20:21:45.231Z,5.80
2023-03-18T20:24:19.995Z,7.20
2023-03-18T20:26:58.844Z,6.50
2023-03-18T20:29:35.966Z,6.70
2023-03-18T20:32:09.639Z,6.50
2023-03-18T20:34:44.209Z,7.80
2023-03-18T20:37:22.989Z,8.40
2023-03-18T20:39:55.996Z,6.80
2023-03-18T20:42:29.501Z,6.50
2023-03-18T20:45:02.109Z,6.60
2023-03-18T20:47:35.525Z,7.00
2023-03-18T20:50:11.119Z,7.60
2023-03-18T20:52:45.949Z,7.70
2023-03-18T20:55:25.491Z,8.30
2023-03-18T20:58:00.842Z,7.50
2023-03-18T21:00:34.705Z,7.80
2023-03-18T21:03:08.849Z,7.10
2023-03-18T21:05:44.842Z,7.20
2023-03-18T21:08:18.914Z,7.90
2023-03-18T21:10:53.816Z,8.00
2023-03-18T21:13:30.826Z,8.20
2023-03-18T21:16:03.885Z,7.60
2023-03-18T21:18:44.894Z,7.00
2023-03-18T21:21:24.553Z,7.80
2023-03-18T21:23:57.328Z,13.10
2023-03-18T21:26:30.670Z,7.70
2023-03-18T21:29:03.600Z,7.10
2023-03-18T21:31:36.623Z,7.10
2023-03-18T21:34:09.780Z,7.20
2023-03-18T21:36:46.354Z,7.40
2023-03-18T21:39:21.370Z,6.90
2023-03-18T21:41:54.483Z,6.60
2023-03-18T21:44:27.656Z,6.30
2023-03-18T21:47:00.365Z,7.20
2023-03-18T21:49:38.831Z,8.30
2023-03-18T21:52:19.043Z,6.90
2023-03-18T21:54:52.398Z,7.00
2023-03-18T21:57:26.515Z,6.30
2023-03-18T21:59:59.912Z,7.40
2023-03-18T22:02:38.132Z,6.40
2023-03-18T22:05:14.697Z,6.90
2023-03-18T22:07:51.171Z,6.80
2023-03-18T22:10:24.831Z,8.00
2023-03-18T22:12:57.685Z,5.70
2023-03-18T22:15:40.677Z,6.60
2023-03-18T22:18:15.094Z,5.90
2023-03-18T22:20:49.189Z,6.90
2023-03-18T22:23:27.415Z,7.40
2023-03-18T22:26:00.504Z,6.60
2023-03-18T22:28:36.044Z,10.50
2023-03-18T22:31:12.363Z,6.70
2023-03-18T22:33:45.591Z,5.50
2023-03-18T22:36:19.484Z,6.40
2023-03-18T22:38:53.012Z,6.70
2023-03-18T22:41:30.554Z,6.30
2023-03-18T22:44:04.033Z,6.90
2023-03-18T22:46:37.070Z,6.00
2023-03-18T22:49:09.841Z,6.30
2023-03-18T22:51:45.102Z,7.80
2023-03-18T22:54:24.734Z,7.20
2023-03-18T22:56:58.828Z,6.80
2023-03-18T22:59:31.722Z,8.10
2023-03-18T23:02:04.626Z,6.70
2023-03-18T23:04:38.314Z,7.60
2023-03-18T23:07:17.328Z,7.10
2023-03-18T23:09:56.913Z,7.40
2023-03-18T23:12:34.310Z,7.50
2023-03-18T23:15:09.699Z,11.20
2023-03-18T23:17:45.980Z,7.70
2023-03-18T23:20:24.004Z,7.20
2023-03-18T23:22:57.062Z,7.80
2023-03-18T23:25:31.103Z,7.30
2023-03-18T23:28:05.110Z,8.50
2023-03-18T23:30:40.035Z,6.80
2023-03-18T23:33:18.224Z,7.40
2023-03-18T23:35:51.374Z,9.50
2023-03-18T23:38:24.603Z,8.70
2023-03-18T23:40:57.618Z,10.50
2023-03-18T23:43:33.008Z,7.70
2023-03-18T23:46:05.911Z,7.20
2023-03-18T23:48:39.740Z,7.30
2023-03-18T23:51:14.197Z,9.90
2023-03-18T23:53:49.278Z,7.40
2023-03-18T23:56:22.156Z,8.30
2023-03-18T23:58:54.968Z,6.90
